JA321B RJOK-RJFK
Flight info
| Callsign | JA321B |
|---|---|
| Flight time | 0h 58m |
| Altitude | 30000 |
| Route | SUC Y757 SPICA |
| Aircraft | HDJT/L-SABDGRWY/H |
Departure
| Time | 2026-04-30 12:31 |
|---|---|
| Airport | Kochi Ryoma Airport (RJOK) |
Arrival
| Time | 2026-04-30 13:29 |
|---|---|
| Airport | Kagoshima Airport (RJFK) |
| Time | Latitude | Longitude | Altitude | Speed | Heading |
|---|---|---|---|---|---|
| 2026-04-30 12:13 | 33.54628 | 133.67487 | 24 ft | 0 kts | 310° |
| 2026-04-30 12:24 | 33.54634 | 133.67478 | 24 ft | 2 kts | 302° |
| 2026-04-30 12:24 | 33.54635 | 133.67460 | 23 ft | 3 kts | 244° |
| 2026-04-30 12:24 | 33.54612 | 133.67425 | 23 ft | 5 kts | 220° |
| 2026-04-30 12:25 | 33.54596 | 133.67408 | 22 ft | 1 kts | 220° |
| 2026-04-30 12:25 | 33.54593 | 133.67405 | 22 ft | 3 kts | 219° |
| 2026-04-30 12:25 | 33.54569 | 133.67367 | 21 ft | 7 kts | 223° |
| 2026-04-30 12:25 | 33.54524 | 133.67361 | 21 ft | 5 kts | 152° |
| 2026-04-30 12:26 | 33.54514 | 133.67369 | 21 ft | 0 kts | 136° |
| 2026-04-30 12:26 | 33.54484 | 133.67413 | 22 ft | 11 kts | 130° |
| 2026-04-30 12:26 | 33.54442 | 133.67472 | 23 ft | 9 kts | 131° |
| 2026-04-30 12:27 | 33.54391 | 133.67542 | 22 ft | 14 kts | 130° |
| 2026-04-30 12:27 | 33.54335 | 133.67622 | 20 ft | 10 kts | 130° |
| 2026-04-30 12:27 | 33.54306 | 133.67650 | 20 ft | 3 kts | 158° |
| 2026-04-30 12:27 | 33.54289 | 133.67664 | 20 ft | 4 kts | 155° |
| 2026-04-30 12:28 | 33.54276 | 133.67660 | 20 ft | 0 kts | 219° |
| 2026-04-30 12:28 | 33.54268 | 133.67652 | 20 ft | 2 kts | 219° |
| 2026-04-30 12:28 | 33.54259 | 133.67643 | 20 ft | 2 kts | 220° |
| 2026-04-30 12:29 | 33.54244 | 133.67629 | 20 ft | 5 kts | 220° |
| 2026-04-30 12:29 | 33.54219 | 133.67603 | 21 ft | 2 kts | 220° |
| 2026-04-30 12:29 | 33.54188 | 133.67566 | 21 ft | 8 kts | 249° |
| 2026-04-30 12:29 | 33.54195 | 133.67513 | 21 ft | 6 kts | 305° |
| 2026-04-30 12:30 | 33.54219 | 133.67482 | 21 ft | 4 kts | 312° |
| 2026-04-30 12:30 | 33.54238 | 133.67457 | 22 ft | 11 kts | 310° |
| 2026-04-30 12:30 | 33.54437 | 133.67178 | 21 ft | 82 kts | 311° |
| 2026-04-30 12:30 | 33.54958 | 133.66449 | 122 ft | 144 kts | 310° |
| 2026-04-30 12:31 | 33.55751 | 133.65328 | 603 ft | 189 kts | 311° |
| 2026-04-30 12:31 | 33.56694 | 133.64225 | 1564 ft | 196 kts | 331° |
| 2026-04-30 12:31 | 33.58024 | 133.63938 | 2560 ft | 201 kts | 12° |
| 2026-04-30 12:31 | 33.59284 | 133.64752 | 3294 ft | 222 kts | 44° |
| 2026-04-30 12:32 | 33.60030 | 133.66474 | 3927 ft | 246 kts | 77° |
| 2026-04-30 12:32 | 33.59830 | 133.68488 | 5113 ft | 247 kts | 109° |
| 2026-04-30 12:32 | 33.58769 | 133.70123 | 6141 ft | 256 kts | 139° |
| 2026-04-30 12:32 | 33.57115 | 133.70904 | 7203 ft | 260 kts | 169° |
| 2026-04-30 12:33 | 33.55305 | 133.70601 | 8201 ft | 269 kts | 198° |
| 2026-04-30 12:33 | 33.53787 | 133.69277 | 9226 ft | 274 kts | 220° |
| 2026-04-30 12:33 | 33.52418 | 133.67702 | 10104 ft | 274 kts | 221° |
| 2026-04-30 12:33 | 33.51090 | 133.65963 | 10577 ft | 289 kts | 227° |
| 2026-04-30 12:34 | 33.49757 | 133.64177 | 11375 ft | 288 kts | 224° |
| 2026-04-30 12:34 | 33.48232 | 133.62623 | 12094 ft | 289 kts | 216° |
| 2026-04-30 12:34 | 33.46537 | 133.61312 | 12785 ft | 291 kts | 214° |
| 2026-04-30 12:34 | 33.44866 | 133.59926 | 13436 ft | 293 kts | 218° |
| 2026-04-30 12:35 | 33.43255 | 133.58422 | 14057 ft | 295 kts | 219° |
| 2026-04-30 12:35 | 33.41609 | 133.56949 | 14691 ft | 296 kts | 218° |
| 2026-04-30 12:35 | 33.39922 | 133.55515 | 15261 ft | 299 kts | 218° |
| 2026-04-30 12:35 | 33.38236 | 133.54046 | 15827 ft | 301 kts | 219° |
| 2026-04-30 12:36 | 33.36557 | 133.52548 | 16380 ft | 302 kts | 219° |
| 2026-04-30 12:36 | 33.34855 | 133.51062 | 16903 ft | 304 kts | 218° |
| 2026-04-30 12:36 | 33.33138 | 133.49572 | 17412 ft | 305 kts | 219° |
| 2026-04-30 12:36 | 33.31417 | 133.48064 | 17895 ft | 307 kts | 219° |
| 2026-04-30 12:37 | 33.29713 | 133.46571 | 18352 ft | 309 kts | 219° |
| 2026-04-30 12:37 | 33.27977 | 133.45052 | 18796 ft | 310 kts | 219° |
| 2026-04-30 12:37 | 33.26232 | 133.43532 | 19239 ft | 311 kts | 219° |
| 2026-04-30 12:37 | 33.24482 | 133.42009 | 19681 ft | 311 kts | 219° |
| 2026-04-30 12:38 | 33.22734 | 133.40479 | 20076 ft | 312 kts | 219° |
| 2026-04-30 12:38 | 33.20973 | 133.38945 | 20477 ft | 313 kts | 219° |
| 2026-04-30 12:38 | 33.19210 | 133.37411 | 20869 ft | 314 kts | 219° |
| 2026-04-30 12:38 | 33.17443 | 133.35870 | 21242 ft | 314 kts | 219° |
| 2026-04-30 12:39 | 33.15669 | 133.34331 | 21573 ft | 316 kts | 218° |
| 2026-04-30 12:39 | 33.13892 | 133.32782 | 21927 ft | 316 kts | 219° |
| 2026-04-30 12:39 | 33.12112 | 133.31232 | 22258 ft | 317 kts | 219° |
| 2026-04-30 12:39 | 33.10316 | 133.29676 | 22565 ft | 319 kts | 219° |
| 2026-04-30 12:40 | 33.08546 | 133.28138 | 22882 ft | 319 kts | 218° |
| 2026-04-30 12:40 | 33.06748 | 133.26574 | 23183 ft | 321 kts | 219° |
| 2026-04-30 12:40 | 33.04942 | 133.25009 | 23484 ft | 321 kts | 218° |
| 2026-04-30 12:40 | 33.03131 | 133.23443 | 23749 ft | 322 kts | 218° |
| 2026-04-30 12:41 | 33.01320 | 133.21868 | 24008 ft | 323 kts | 218° |
| 2026-04-30 12:41 | 32.99504 | 133.20290 | 24267 ft | 324 kts | 218° |
| 2026-04-30 12:41 | 32.97677 | 133.18719 | 24528 ft | 324 kts | 218° |
| 2026-04-30 12:41 | 32.95849 | 133.17135 | 24766 ft | 326 kts | 218° |
| 2026-04-30 12:42 | 32.94014 | 133.15545 | 25012 ft | 326 kts | 218° |
| 2026-04-30 12:42 | 32.92174 | 133.13954 | 25231 ft | 328 kts | 218° |
| 2026-04-30 12:42 | 32.90326 | 133.12363 | 25478 ft | 327 kts | 218° |
| 2026-04-30 12:42 | 32.88483 | 133.10770 | 25702 ft | 328 kts | 218° |
| 2026-04-30 12:43 | 32.86636 | 133.09167 | 25911 ft | 329 kts | 218° |
| 2026-04-30 12:43 | 32.84776 | 133.07572 | 26105 ft | 330 kts | 218° |
| 2026-04-30 12:43 | 32.82916 | 133.05969 | 26295 ft | 331 kts | 218° |
| 2026-04-30 12:43 | 32.81053 | 133.04360 | 26496 ft | 331 kts | 218° |
| 2026-04-30 12:44 | 32.79183 | 133.02753 | 26673 ft | 332 kts | 218° |
| 2026-04-30 12:44 | 32.77378 | 133.01098 | 26838 ft | 332 kts | 223° |
| 2026-04-30 12:44 | 32.75745 | 132.99164 | 26940 ft | 333 kts | 229° |
| 2026-04-30 12:44 | 32.74304 | 132.97020 | 27193 ft | 332 kts | 234° |
| 2026-04-30 12:45 | 32.73073 | 132.94687 | 27347 ft | 334 kts | 238° |
| 2026-04-30 12:45 | 32.71885 | 132.92322 | 27523 ft | 334 kts | 237° |
| 2026-04-30 12:45 | 32.70659 | 132.89984 | 27672 ft | 335 kts | 237° |
| 2026-04-30 12:45 | 32.69442 | 132.87621 | 27845 ft | 335 kts | 238° |
| 2026-04-30 12:46 | 32.68250 | 132.85247 | 27983 ft | 336 kts | 238° |
| 2026-04-30 12:46 | 32.67040 | 132.82878 | 28150 ft | 335 kts | 237° |
| 2026-04-30 12:46 | 32.65839 | 132.80546 | 28276 ft | 336 kts | 237° |
| 2026-04-30 12:46 | 32.64626 | 132.78172 | 28422 ft | 336 kts | 238° |
| 2026-04-30 12:47 | 32.63415 | 132.75797 | 28549 ft | 337 kts | 237° |
| 2026-04-30 12:47 | 32.62194 | 132.73422 | 28665 ft | 338 kts | 237° |
| 2026-04-30 12:47 | 32.61102 | 132.71293 | 28771 ft | 338 kts | 237° |
| 2026-04-30 12:47 | 32.59883 | 132.68909 | 28912 ft | 338 kts | 238° |
| 2026-04-30 12:48 | 32.58661 | 132.66530 | 29027 ft | 339 kts | 238° |
| 2026-04-30 12:48 | 32.57434 | 132.64142 | 29154 ft | 339 kts | 238° |
| 2026-04-30 12:48 | 32.54977 | 132.59360 | 29316 ft | 341 kts | 238° |
| 2026-04-30 12:49 | 32.52910 | 132.55349 | 29324 ft | 345 kts | 237° |
| 2026-04-30 12:49 | 32.50399 | 132.50471 | 29332 ft | 348 kts | 238° |
| 2026-04-30 12:50 | 32.47871 | 132.45576 | 29405 ft | 348 kts | 237° |
| 2026-04-30 12:50 | 32.45348 | 132.40684 | 29459 ft | 348 kts | 238° |
| 2026-04-30 12:51 | 32.42440 | 132.35071 | 29512 ft | 347 kts | 238° |
| 2026-04-30 12:51 | 32.39917 | 132.30196 | 29521 ft | 347 kts | 237° |
| 2026-04-30 12:52 | 32.38692 | 132.27840 | 28345 ft | 330 kts | 237° |
| 2026-04-30 12:52 | 32.37481 | 132.25507 | 26542 ft | 337 kts | 237° |
| 2026-04-30 12:52 | 32.36264 | 132.23159 | 25727 ft | 331 kts | 237° |
| 2026-04-30 12:52 | 32.35470 | 132.21625 | 25233 ft | 330 kts | 237° |
| 2026-04-30 12:53 | 32.34273 | 132.19323 | 24489 ft | 327 kts | 237° |
| 2026-04-30 12:53 | 32.32680 | 132.16270 | 23490 ft | 326 kts | 237° |
| 2026-04-30 12:53 | 32.31899 | 132.14766 | 22996 ft | 323 kts | 237° |
| 2026-04-30 12:53 | 32.30736 | 132.12522 | 22248 ft | 318 kts | 237° |
| 2026-04-30 12:54 | 32.29582 | 132.10310 | 21499 ft | 314 kts | 237° |
| 2026-04-30 12:54 | 32.28442 | 132.08127 | 20749 ft | 310 kts | 237° |
| 2026-04-30 12:54 | 32.27320 | 132.05973 | 20004 ft | 306 kts | 238° |
| 2026-04-30 12:54 | 32.26223 | 132.03875 | 19846 ft | 296 kts | 238° |
| 2026-04-30 12:55 | 32.25133 | 132.01778 | 19849 ft | 303 kts | 238° |
| 2026-04-30 12:55 | 32.24021 | 131.99650 | 19853 ft | 306 kts | 238° |
| 2026-04-30 12:55 | 32.22901 | 131.97512 | 19853 ft | 305 kts | 238° |
| 2026-04-30 12:55 | 32.21788 | 131.95379 | 19851 ft | 305 kts | 238° |
| 2026-04-30 12:56 | 32.20671 | 131.93246 | 19846 ft | 306 kts | 238° |
| 2026-04-30 12:56 | 32.19553 | 131.91114 | 19839 ft | 305 kts | 238° |
| 2026-04-30 12:56 | 32.18438 | 131.88980 | 19839 ft | 305 kts | 238° |
| 2026-04-30 12:56 | 32.17319 | 131.86848 | 19839 ft | 305 kts | 238° |
| 2026-04-30 12:57 | 32.16204 | 131.84718 | 19840 ft | 305 kts | 238° |
| 2026-04-30 12:57 | 32.15078 | 131.82578 | 19692 ft | 308 kts | 238° |
| 2026-04-30 12:57 | 32.13953 | 131.80433 | 19363 ft | 306 kts | 238° |
| 2026-04-30 12:57 | 32.12858 | 131.78342 | 19021 ft | 301 kts | 238° |
| 2026-04-30 12:58 | 32.11757 | 131.76254 | 18678 ft | 299 kts | 238° |
| 2026-04-30 12:58 | 32.10664 | 131.74176 | 18337 ft | 298 kts | 238° |
| 2026-04-30 12:58 | 32.09595 | 131.72137 | 18002 ft | 296 kts | 239° |
| 2026-04-30 12:58 | 32.08514 | 131.70077 | 17664 ft | 294 kts | 238° |
| 2026-04-30 12:59 | 32.07430 | 131.68030 | 17328 ft | 294 kts | 238° |
| 2026-04-30 12:59 | 32.06336 | 131.65955 | 16987 ft | 294 kts | 239° |
| 2026-04-30 12:59 | 32.05279 | 131.63938 | 16656 ft | 293 kts | 238° |
| 2026-04-30 12:59 | 32.04201 | 131.61902 | 16321 ft | 293 kts | 238° |
| 2026-04-30 13:00 | 32.03126 | 131.59865 | 15987 ft | 293 kts | 239° |
| 2026-04-30 13:00 | 32.02051 | 131.57826 | 15652 ft | 291 kts | 239° |
| 2026-04-30 13:00 | 32.01025 | 131.55886 | 15326 ft | 268 kts | 238° |
| 2026-04-30 13:00 | 32.00052 | 131.54047 | 15022 ft | 262 kts | 239° |
| 2026-04-30 13:01 | 31.99097 | 131.52234 | 14728 ft | 260 kts | 239° |
| 2026-04-30 13:01 | 31.98144 | 131.50432 | 14434 ft | 258 kts | 239° |
| 2026-04-30 13:01 | 31.97193 | 131.48644 | 14139 ft | 258 kts | 239° |
| 2026-04-30 13:01 | 31.96246 | 131.46850 | 13900 ft | 257 kts | 239° |
| 2026-04-30 13:02 | 31.95300 | 131.45061 | 13629 ft | 258 kts | 238° |
| 2026-04-30 13:02 | 31.94346 | 131.43272 | 13339 ft | 258 kts | 239° |
| 2026-04-30 13:02 | 31.93394 | 131.41487 | 13045 ft | 258 kts | 238° |
| 2026-04-30 13:02 | 31.92440 | 131.39697 | 12750 ft | 258 kts | 238° |
| 2026-04-30 13:03 | 31.91484 | 131.37913 | 12458 ft | 257 kts | 238° |
| 2026-04-30 13:03 | 31.90535 | 131.36138 | 12165 ft | 255 kts | 238° |
| 2026-04-30 13:03 | 31.89586 | 131.34371 | 11869 ft | 256 kts | 239° |
| 2026-04-30 13:03 | 31.88645 | 131.32605 | 11579 ft | 255 kts | 239° |
| 2026-04-30 13:04 | 31.87701 | 131.30836 | 11286 ft | 254 kts | 238° |
| 2026-04-30 13:04 | 31.86751 | 131.29070 | 10990 ft | 256 kts | 238° |
| 2026-04-30 13:04 | 31.85803 | 131.27299 | 10704 ft | 254 kts | 238° |
| 2026-04-30 13:04 | 31.84860 | 131.25541 | 10405 ft | 254 kts | 238° |
| 2026-04-30 13:05 | 31.83920 | 131.23783 | 10124 ft | 254 kts | 237° |
| 2026-04-30 13:05 | 31.82977 | 131.22029 | 9833 ft | 251 kts | 237° |
| 2026-04-30 13:05 | 31.82039 | 131.20290 | 9546 ft | 253 kts | 237° |
| 2026-04-30 13:06 | 31.80339 | 131.17120 | 9014 ft | 219 kts | 237° |
| 2026-04-30 13:06 | 31.79543 | 131.15643 | 8778 ft | 217 kts | 237° |
| 2026-04-30 13:06 | 31.78739 | 131.14147 | 8538 ft | 217 kts | 237° |
| 2026-04-30 13:06 | 31.77946 | 131.12672 | 8298 ft | 216 kts | 237° |
| 2026-04-30 13:07 | 31.77145 | 131.11186 | 8052 ft | 215 kts | 237° |
| 2026-04-30 13:07 | 31.76348 | 131.09705 | 7808 ft | 215 kts | 237° |
| 2026-04-30 13:07 | 31.75554 | 131.08230 | 7563 ft | 217 kts | 237° |
| 2026-04-30 13:07 | 31.74707 | 131.06659 | 7311 ft | 234 kts | 237° |
| 2026-04-30 13:08 | 31.73839 | 131.05037 | 7042 ft | 236 kts | 237° |
| 2026-04-30 13:08 | 31.72969 | 131.03408 | 6770 ft | 236 kts | 237° |
| 2026-04-30 13:08 | 31.72090 | 131.01777 | 6504 ft | 236 kts | 237° |
| 2026-04-30 13:08 | 31.71213 | 131.00144 | 6235 ft | 236 kts | 237° |
| 2026-04-30 13:09 | 31.70334 | 130.98504 | 5965 ft | 238 kts | 237° |
| 2026-04-30 13:09 | 31.69458 | 130.96875 | 5696 ft | 235 kts | 237° |
| 2026-04-30 13:09 | 31.68579 | 130.95246 | 5426 ft | 235 kts | 237° |
| 2026-04-30 13:09 | 31.67745 | 130.93699 | 5164 ft | 214 kts | 237° |
| 2026-04-30 13:10 | 31.67037 | 130.92254 | 4932 ft | 196 kts | 246° |
| 2026-04-30 13:10 | 31.66688 | 130.90762 | 4730 ft | 185 kts | 257° |
| 2026-04-30 13:10 | 31.66434 | 130.89325 | 4525 ft | 175 kts | 255° |
| 2026-04-30 13:10 | 31.66172 | 130.87944 | 4333 ft | 174 kts | 255° |
| 2026-04-30 13:11 | 31.66021 | 130.86539 | 4140 ft | 175 kts | 271° |
| 2026-04-30 13:11 | 31.66300 | 130.85135 | 3944 ft | 178 kts | 287° |
| 2026-04-30 13:11 | 31.66734 | 130.83775 | 3735 ft | 178 kts | 286° |
| 2026-04-30 13:11 | 31.67137 | 130.82410 | 3534 ft | 177 kts | 286° |
| 2026-04-30 13:12 | 31.67549 | 130.81041 | 3328 ft | 177 kts | 287° |
| 2026-04-30 13:12 | 31.68001 | 130.79699 | 3134 ft | 178 kts | 300° |
| 2026-04-30 13:12 | 31.68965 | 130.78812 | 2954 ft | 182 kts | 341° |
| 2026-04-30 13:13 | 31.71254 | 130.78102 | 2740 ft | 158 kts | 328° |
| 2026-04-30 13:13 | 31.72185 | 130.77459 | 2736 ft | 154 kts | 327° |
| 2026-04-30 13:13 | 31.74067 | 130.76152 | 2119 ft | 152 kts | 326° |
| 2026-04-30 13:14 | 31.74906 | 130.75501 | 2154 ft | 126 kts | 324° |
| 2026-04-30 13:14 | 31.75535 | 130.75015 | 2909 ft | 101 kts | 329° |
| 2026-04-30 13:14 | 31.77084 | 130.74639 | 3288 ft | 163 kts | 352° |
| 2026-04-30 13:15 | 31.78242 | 130.74489 | 2701 ft | 150 kts | 351° |
| 2026-04-30 13:15 | 31.79976 | 130.73831 | 2857 ft | 136 kts | 327° |
| 2026-04-30 13:15 | 31.80678 | 130.73089 | 3255 ft | 133 kts | 294° |
| 2026-04-30 13:16 | 31.80812 | 130.71971 | 3468 ft | 144 kts | 270° |
| 2026-04-30 13:16 | 31.80874 | 130.70817 | 3866 ft | 141 kts | 271° |
| 2026-04-30 13:16 | 31.80943 | 130.69745 | 4170 ft | 156 kts | 272° |
| 2026-04-30 13:17 | 31.81117 | 130.67121 | 4851 ft | 197 kts | 272° |
| 2026-04-30 13:17 | 31.81226 | 130.65406 | 4842 ft | 219 kts | 269° |
| 2026-04-30 13:17 | 31.79634 | 130.62478 | 4852 ft | 229 kts | 205° |
| 2026-04-30 13:18 | 31.78167 | 130.61999 | 4849 ft | 210 kts | 192° |
| 2026-04-30 13:18 | 31.75441 | 130.61358 | 4838 ft | 193 kts | 192° |
| 2026-04-30 13:18 | 31.74140 | 130.61054 | 4831 ft | 189 kts | 192° |
| 2026-04-30 13:19 | 31.72864 | 130.60760 | 4832 ft | 187 kts | 189° |
| 2026-04-30 13:19 | 31.71605 | 130.61049 | 4842 ft | 189 kts | 152° |
| 2026-04-30 13:19 | 31.70564 | 130.62004 | 4866 ft | 188 kts | 142° |
| 2026-04-30 13:19 | 31.69602 | 130.62970 | 4892 ft | 188 kts | 142° |
| 2026-04-30 13:20 | 31.68608 | 130.63972 | 4894 ft | 188 kts | 142° |
| 2026-04-30 13:20 | 31.67604 | 130.64983 | 4892 ft | 189 kts | 142° |
| 2026-04-30 13:20 | 31.66623 | 130.65975 | 4895 ft | 189 kts | 142° |
| 2026-04-30 13:20 | 31.65616 | 130.66988 | 4897 ft | 191 kts | 142° |
| 2026-04-30 13:21 | 31.64600 | 130.68009 | 4896 ft | 193 kts | 142° |
| 2026-04-30 13:21 | 31.63582 | 130.69040 | 4900 ft | 193 kts | 142° |
| 2026-04-30 13:21 | 31.62564 | 130.70071 | 4898 ft | 194 kts | 142° |
| 2026-04-30 13:22 | 31.60521 | 130.72148 | 4896 ft | 194 kts | 143° |
| 2026-04-30 13:22 | 31.59512 | 130.73183 | 4989 ft | 192 kts | 142° |
| 2026-04-30 13:22 | 31.57654 | 130.75453 | 4976 ft | 201 kts | 116° |
| 2026-04-30 13:23 | 31.57573 | 130.77097 | 4966 ft | 208 kts | 77° |
| 2026-04-30 13:23 | 31.58920 | 130.80263 | 4532 ft | 224 kts | 63° |
| 2026-04-30 13:24 | 31.60919 | 130.82466 | 3990 ft | 192 kts | 8° |
| 2026-04-30 13:24 | 31.63508 | 130.82797 | 3990 ft | 193 kts | 359° |
| 2026-04-30 13:25 | 31.65972 | 130.81652 | 3541 ft | 187 kts | 327° |
| 2026-04-30 13:25 | 31.68053 | 130.80252 | 3287 ft | 160 kts | 327° |
| 2026-04-30 13:26 | 31.70772 | 130.78415 | 2779 ft | 133 kts | 326° |
| 2026-04-30 13:26 | 31.72405 | 130.77307 | 2407 ft | 134 kts | 328° |
| 2026-04-30 13:27 | 31.73963 | 130.76257 | 2061 ft | 129 kts | 327° |
| 2026-04-30 13:28 | 31.76255 | 130.74702 | 1561 ft | 129 kts | 327° |
| 2026-04-30 13:28 | 31.77753 | 130.73691 | 1216 ft | 114 kts | 328° |
| 2026-04-30 13:28 | 31.78418 | 130.73250 | 1075 ft | 108 kts | 329° |
| 2026-04-30 13:29 | 31.79737 | 130.72338 | 895 ft | 91 kts | 331° |
| 2026-04-30 13:29 | 31.80316 | 130.71952 | 897 ft | 31 kts | 330° |
| 2026-04-30 13:30 | 31.80476 | 130.71684 | 888 ft | 3 kts | 239° |
| 2026-04-30 13:31 | 31.80476 | 130.71683 | 888 ft | 0 kts | 239° |
| 2026-04-30 13:33 | 31.80382 | 130.71676 | 886 ft | 11 kts | 149° |
| 2026-04-30 13:34 | 31.80304 | 130.71730 | 886 ft | 15 kts | 149° |
| 2026-04-30 13:34 | 31.80026 | 130.71922 | 886 ft | 13 kts | 148° |
| 2026-04-30 13:35 | 31.79945 | 130.71980 | 886 ft | 13 kts | 149° |
| 2026-04-30 13:35 | 31.79830 | 130.72019 | 886 ft | 6 kts | 243° |
| 2026-04-30 13:36 | 31.79786 | 130.72015 | 885 ft | 0 kts | 150° |